createdAt,value
2016-10-14T00:00:41.137Z,0
2016-10-14T00:01:41.137Z,0
2016-10-14T00:02:41.163Z,0
2016-10-14T00:03:41.179Z,0
2016-10-14T00:04:56.120Z,0
2016-10-14T00:05:41.219Z,0
2016-10-14T00:06:41.239Z,0
2016-10-14T00:07:41.260Z,0
2016-10-14T00:08:41.276Z,0
2016-10-14T00:09:41.291Z,0
2016-10-14T00:10:41.570Z,0
2016-10-14T00:11:41.327Z,0
2016-10-14T00:12:41.361Z,0
2016-10-14T00:13:41.371Z,0
2016-10-14T00:14:41.402Z,0
2016-10-14T00:15:41.411Z,0
2016-10-14T00:16:41.435Z,0
2016-10-14T00:17:41.450Z,0
2016-10-14T00:18:56.390Z,0
2016-10-14T00:19:41.494Z,0
2016-10-14T00:20:56.432Z,0
2016-10-14T00:21:41.534Z,0
2016-10-14T00:22:41.553Z,0
2016-10-14T00:24:41.598Z,0
2016-10-14T00:25:41.603Z,0
2016-10-14T00:26:41.628Z,0
2016-10-14T00:27:41.647Z,0
2016-10-14T00:28:41.680Z,0
2016-10-14T00:29:41.685Z,0
2016-10-14T00:30:41.698Z,0
2016-10-14T00:31:56.648Z,0
2016-10-14T00:32:41.749Z,0
2016-10-14T00:33:56.695Z,0
2016-10-14T00:34:41.788Z,0
2016-10-14T00:35:56.721Z,0
2016-10-14T00:36:56.748Z,0
2016-10-14T00:37:41.844Z,0
2016-10-14T00:38:42.110Z,0
2016-10-14T00:39:41.882Z,0
2016-10-14T00:40:41.901Z,0
2016-10-14T00:41:57.102Z,0
2016-10-14T00:42:42.190Z,0
2016-10-14T00:44:41.982Z,0
2016-10-14T00:45:42.006Z,0
2016-10-14T00:46:56.941Z,0
2016-10-14T00:47:42.041Z,0
2016-10-14T00:48:42.055Z,0
2016-10-14T00:49:42.071Z,0
2016-10-14T00:50:57.321Z,0
2016-10-14T00:51:42.117Z,0
2016-10-14T00:52:57.059Z,0
2016-10-14T00:53:42.404Z,0
2016-10-14T00:55:42.195Z,0
2016-10-14T00:56:42.217Z,0
2016-10-14T00:57:42.237Z,0
2016-10-14T00:58:42.249Z,0
2016-10-14T00:59:42.263Z,0
2016-10-14T01:00:42.299Z,0
2016-10-14T01:01:42.317Z,0
2016-10-14T01:02:42.347Z,0
2016-10-14T01:03:42.600Z,0
2016-10-14T01:04:42.417Z,0
2016-10-14T01:05:42.384Z,0
2016-10-14T01:06:42.405Z,0
2016-10-14T01:07:57.347Z,0
2016-10-14T01:08:42.445Z,0
2016-10-14T01:09:42.464Z,0
2016-10-14T01:10:42.487Z,0
2016-10-14T01:11:42.500Z,0
2016-10-14T01:13:42.537Z,0
2016-10-14T01:14:42.564Z,0
2016-10-14T01:15:42.586Z,0
2016-10-14T01:16:42.906Z,0
2016-10-14T01:17:42.616Z,0
2016-10-14T01:18:42.888Z,0
2016-10-14T01:19:57.580Z,0
2016-10-14T01:21:42.697Z,0
2016-10-14T01:22:57.681Z,0
2016-10-14T01:23:42.729Z,0
2016-10-14T01:24:42.755Z,0
2016-10-14T01:25:42.775Z,0
2016-10-14T01:26:42.794Z,0
2016-10-14T01:27:42.813Z,0
2016-10-14T01:28:42.829Z,0
2016-10-14T01:29:42.899Z,0
2016-10-14T01:30:42.908Z,0
2016-10-14T01:31:42.889Z,0
2016-10-14T01:32:42.905Z,0
2016-10-14T01:33:42.927Z,0
2016-10-14T01:34:57.870Z,0
2016-10-14T01:35:42.965Z,0
2016-10-14T01:36:42.978Z,0
2016-10-14T01:37:43.008Z,0
2016-10-14T01:39:57.959Z,0
2016-10-14T01:40:43.062Z,0
2016-10-14T01:41:43.081Z,0
2016-10-14T01:42:43.096Z,0
2016-10-14T01:43:43.115Z,0
2016-10-14T01:45:43.175Z,0
2016-10-14T01:46:43.193Z,0
2016-10-14T01:47:43.191Z,0
2016-10-14T01:48:43.210Z,0
2016-10-14T01:49:43.222Z,0
2016-10-14T01:51:43.268Z,0
2016-10-14T01:52:43.286Z,0
2016-10-14T01:53:58.225Z,0
2016-10-14T01:54:43.322Z,0
2016-10-14T01:55:58.261Z,0
2016-10-14T01:56:43.357Z,0
2016-10-14T01:57:43.384Z,0
2016-10-14T01:58:43.396Z,0
2016-10-14T01:59:43.418Z,0
2016-10-14T02:00:43.440Z,0
2016-10-14T02:01:43.447Z,0
2016-10-14T02:02:43.477Z,0
2016-10-14T02:03:43.500Z,0
2016-10-14T02:04:43.512Z,0
2016-10-14T02:05:43.526Z,0
2016-10-14T02:07:58.495Z,0
2016-10-14T02:08:43.580Z,0
2016-10-14T02:09:43.598Z,0
2016-10-14T02:10:58.545Z,0
2016-10-14T02:11:58.557Z,0
2016-10-14T02:12:43.661Z,0
2016-10-14T02:13:43.683Z,0
2016-10-14T02:14:43.973Z,0
2016-10-14T02:15:43.718Z,0
2016-10-14T02:16:44.043Z,0
2016-10-14T02:17:44.005Z,0
2016-10-14T02:18:43.775Z,0
2016-10-14T02:20:43.810Z,0
2016-10-14T02:21:43.834Z,0
2016-10-14T02:22:43.848Z,0
2016-10-14T02:23:43.867Z,0
2016-10-14T02:25:43.907Z,0
2016-10-14T02:26:43.922Z,0
2016-10-14T02:27:59.108Z,0
2016-10-14T02:28:43.957Z,0
2016-10-14T02:29:43.975Z,0
2016-10-14T02:30:43.999Z,0
2016-10-14T02:31:44.019Z,0
2016-10-14T02:32:44.032Z,0
2016-10-14T02:33:44.051Z,0
2016-10-14T02:34:44.071Z,0
2016-10-14T02:35:44.087Z,0
2016-10-14T02:36:44.111Z,0
2016-10-14T02:38:44.150Z,0
2016-10-14T02:39:44.169Z,0
2016-10-14T02:40:59.361Z,0
2016-10-14T02:41:59.122Z,0
2016-10-14T02:42:59.142Z,0
2016-10-14T02:43:44.242Z,0
2016-10-14T02:44:44.256Z,0
2016-10-14T02:45:44.279Z,0
2016-10-14T02:46:44.294Z,0
2016-10-14T02:47:44.310Z,0
2016-10-14T02:48:44.332Z,0
2016-10-14T02:49:44.348Z,0
2016-10-14T02:50:44.373Z,0
2016-10-14T02:52:44.413Z,0
2016-10-14T02:53:44.680Z,0
2016-10-14T02:54:59.371Z,0
2016-10-14T02:55:44.465Z,0
2016-10-14T02:56:44.478Z,0
2016-10-14T02:57:59.423Z,0
2016-10-14T02:58:44.518Z,0
2016-10-14T02:59:44.537Z,0
2016-10-14T03:00:44.557Z,0
2016-10-14T03:01:44.569Z,0
2016-10-14T03:02:44.600Z,0
2016-10-14T03:03:44.611Z,0
2016-10-14T03:04:44.929Z,0
2016-10-14T03:05:44.653Z,0
2016-10-14T03:06:44.924Z,0
2016-10-14T03:07:44.688Z,0
2016-10-14T03:08:44.705Z,0
2016-10-14T03:09:59.647Z,0
2016-10-14T03:10:44.740Z,0
2016-10-14T03:11:44.820Z,0
2016-10-14T03:12:44.779Z,0
2016-10-14T03:13:59.712Z,0
2016-10-14T03:14:59.738Z,0
2016-10-14T03:15:44.832Z,0
2016-10-14T03:16:44.854Z,0
2016-10-14T03:17:44.868Z,0
2016-10-14T03:18:44.888Z,0
2016-10-14T03:19:44.913Z,0
2016-10-14T03:20:44.921Z,0
2016-10-14T03:21:44.945Z,0
2016-10-14T03:22:44.960Z,0
2016-10-14T03:23:44.986Z,0
2016-10-14T03:24:59.921Z,0
2016-10-14T03:25:59.936Z,0
2016-10-14T03:26:45.045Z,0
2016-10-14T03:27:59.978Z,0
2016-10-14T03:28:45.070Z,0
2016-10-14T03:29:45.092Z,0
2016-10-14T03:31:00.277Z,0
2016-10-14T03:31:45.147Z,0
2016-10-14T03:32:45.143Z,0
2016-10-14T03:33:45.160Z,0
2016-10-14T03:34:45.183Z,0
2016-10-14T03:35:45.450Z,0
2016-10-14T03:36:45.218Z,0
2016-10-14T03:37:45.237Z,0
2016-10-14T03:38:45.257Z,0
2016-10-14T03:39:45.268Z,0
2016-10-14T03:40:45.286Z,0
2016-10-14T03:41:45.307Z,0
2016-10-14T03:42:45.327Z,0
2016-10-14T03:43:45.597Z,0
2016-10-14T03:44:45.613Z,0
2016-10-14T03:45:45.397Z,0
2016-10-14T03:47:45.420Z,0
2016-10-14T03:48:45.434Z,0
2016-10-14T03:49:45.479Z,0
2016-10-14T03:50:45.672Z,0
2016-10-14T03:51:45.485Z,0
2016-10-14T03:52:45.511Z,0
2016-10-14T03:54:00.451Z,0
2016-10-14T03:54:45.541Z,0
2016-10-14T03:56:00.487Z,0
2016-10-14T03:56:45.584Z,0
2016-10-14T03:57:45.594Z,0
2016-10-14T03:58:45.615Z,0
2016-10-14T04:00:45.652Z,0
2016-10-14T04:01:45.933Z,0
2016-10-14T04:03:00.607Z,0
2016-10-14T04:03:45.713Z,0
2016-10-14T04:05:45.747Z,0
2016-10-14T04:07:45.786Z,0
2016-10-14T04:08:45.801Z,0
2016-10-14T04:09:45.818Z,0
2016-10-14T04:10:45.835Z,0
2016-10-14T04:11:45.849Z,0
2016-10-14T04:13:01.053Z,0
2016-10-14T04:14:00.812Z,0
2016-10-14T04:15:45.927Z,0
2016-10-14T04:16:45.952Z,0
2016-10-14T04:18:00.878Z,0
2016-10-14T04:18:45.977Z,0
2016-10-14T04:20:46.019Z,0
2016-10-14T04:21:46.046Z,0
2016-10-14T04:22:46.047Z,0
2016-10-14T04:23:46.065Z,0
2016-10-14T04:24:46.091Z,0
2016-10-14T04:25:46.111Z,0
2016-10-14T04:26:46.132Z,0
2016-10-14T04:27:46.148Z,0
2016-10-14T04:28:46.166Z,0
2016-10-14T04:29:46.179Z,0
2016-10-14T04:30:46.201Z,0
2016-10-14T04:31:46.215Z,0
2016-10-14T04:32:46.229Z,0
2016-10-14T04:33:46.246Z,0
2016-10-14T04:35:01.183Z,0
2016-10-14T04:35:46.281Z,0
2016-10-14T04:36:46.302Z,0
2016-10-14T04:37:46.335Z,0
2016-10-14T04:38:46.343Z,0
2016-10-14T04:39:46.377Z,0
2016-10-14T04:40:46.385Z,0
2016-10-14T04:41:46.388Z,0
2016-10-14T04:42:46.412Z,0
2016-10-14T04:44:46.443Z,0
2016-10-14T04:47:46.519Z,0
2016-10-14T04:48:46.522Z,0
2016-10-14T04:50:01.457Z,0
2016-10-14T04:50:46.559Z,4
2016-10-14T04:51:46.566Z,0
2016-10-14T04:52:46.595Z,0
2016-10-14T04:53:46.608Z,0
2016-10-14T04:54:46.627Z,4
2016-10-14T04:55:46.646Z,4
2016-10-14T04:56:46.658Z,0
2016-10-14T04:57:46.687Z,0
2016-10-14T04:58:46.694Z,4
2016-10-14T04:59:46.720Z,4
2016-10-14T05:00:46.734Z,4
2016-10-14T05:01:46.752Z,4
2016-10-14T05:02:46.786Z,4
2016-10-14T05:03:46.780Z,8
2016-10-14T05:04:46.809Z,8
2016-10-14T05:06:01.748Z,12
2016-10-14T05:06:46.842Z,12
2016-10-14T05:07:46.863Z,12
2016-10-14T05:08:46.874Z,16
2016-10-14T05:09:46.888Z,16
2016-10-14T05:10:46.915Z,20
2016-10-14T05:11:46.938Z,24
2016-10-14T05:12:46.950Z,28
2016-10-14T05:13:47.215Z,32
2016-10-14T05:14:46.993Z,40
2016-10-14T05:15:47.257Z,56
2016-10-14T05:16:47.019Z,68
2016-10-14T05:17:47.036Z,72
2016-10-14T05:19:01.978Z,68
2016-10-14T05:19:47.070Z,68
2016-10-14T05:21:02.010Z,100
2016-10-14T05:22:02.036Z,128
2016-10-14T05:22:47.132Z,140
2016-10-14T05:23:47.161Z,148
2016-10-14T05:24:47.167Z,164
2016-10-14T05:25:47.183Z,172
2016-10-14T05:26:47.197Z,192
2016-10-14T05:28:02.160Z,228
2016-10-14T05:28:47.237Z,244
2016-10-14T05:29:47.251Z,272
2016-10-14T05:30:47.274Z,300
2016-10-14T05:31:47.852Z,328
2016-10-14T05:33:02.229Z,348
2016-10-14T05:33:47.323Z,380
2016-10-14T05:35:02.576Z,452
2016-10-14T05:35:47.364Z,464
2016-10-14T05:36:47.577Z,512
2016-10-14T05:38:47.410Z,656
2016-10-14T05:40:47.460Z,788
2016-10-14T05:41:47.464Z,808
2016-10-14T05:42:47.493Z,872
2016-10-14T05:43:47.516Z,1036
2016-10-14T05:44:47.523Z,1112
2016-10-14T05:45:47.543Z,1124
2016-10-14T05:46:47.566Z,1240
2016-10-14T05:47:47.583Z,1176
2016-10-14T05:49:47.618Z,1168
2016-10-14T05:50:47.625Z,1044
2016-10-14T05:52:02.568Z,1180
2016-10-14T05:53:02.591Z,1424
2016-10-14T05:53:47.692Z,1444
2016-10-14T05:55:47.725Z,1584
2016-10-14T05:56:47.746Z,1340
2016-10-14T05:57:47.758Z,1396
2016-10-14T05:58:47.774Z,1520
2016-10-14T05:59:47.796Z,1984
2016-10-14T06:01:02.738Z,2400
2016-10-14T06:02:48.157Z,2580
2016-10-14T06:03:47.867Z,2584
2016-10-14T06:04:47.882Z,3272
2016-10-14T06:05:47.908Z,3156
2016-10-14T06:07:48.248Z,3288
2016-10-14T06:08:47.963Z,3484
2016-10-14T06:09:47.983Z,3352
2016-10-14T06:10:47.995Z,3692
2016-10-14T06:12:48.033Z,3964
2016-10-14T06:13:48.053Z,4348
2016-10-14T06:14:48.071Z,4380
2016-10-14T06:15:48.082Z,4656
2016-10-14T06:16:48.109Z,4540
2016-10-14T06:17:48.127Z,4532
2016-10-14T06:18:48.166Z,4328
2016-10-14T06:19:48.166Z,4388
2016-10-14T06:21:03.108Z,5024
2016-10-14T06:21:48.210Z,5404
2016-10-14T06:22:48.219Z,4664
2016-10-14T06:23:48.241Z,4576
2016-10-14T06:25:03.178Z,4500
2016-10-14T06:25:48.270Z,4168
2016-10-14T06:26:48.542Z,3892
2016-10-14T06:27:48.318Z,3708
2016-10-14T06:28:48.331Z,3848
2016-10-14T06:29:48.349Z,4596
2016-10-14T06:30:48.368Z,4172
2016-10-14T06:31:48.390Z,4088
2016-10-14T06:32:48.712Z,4616
2016-10-14T06:33:48.424Z,4676
2016-10-14T06:34:48.444Z,4964
2016-10-14T06:35:48.462Z,4876
2016-10-14T06:37:03.402Z,4656
2016-10-14T06:37:48.501Z,6680
2016-10-14T06:38:48.527Z,5816
2016-10-14T06:39:48.542Z,6076
2016-10-14T06:41:03.479Z,5496
2016-10-14T06:41:48.580Z,5768
2016-10-14T06:43:48.617Z,5192
2016-10-14T06:44:48.623Z,5536
2016-10-14T06:45:48.662Z,6300
2016-10-14T06:46:48.677Z,5688
2016-10-14T06:47:48.694Z,5932
2016-10-14T06:48:48.730Z,5768
2016-10-14T06:49:48.733Z,5968
2016-10-14T06:50:48.746Z,5996
2016-10-14T06:51:48.766Z,6068
2016-10-14T06:52:48.784Z,6196
2016-10-14T06:53:48.799Z,6568
2016-10-14T06:54:49.374Z,6876
2016-10-14T06:57:03.780Z,7916
2016-10-14T06:57:48.883Z,8232
2016-10-14T06:58:48.894Z,8716
2016-10-14T06:59:48.914Z,9532
2016-10-14T07:00:48.938Z,10008
2016-10-14T07:01:48.954Z,13912
2016-10-14T07:02:48.975Z,15744
2016-10-14T07:03:48.995Z,12716
2016-10-14T07:04:49.017Z,19328
2016-10-14T07:05:49.036Z,19168
2016-10-14T07:06:49.307Z,17248
2016-10-14T07:07:49.071Z,15648
2016-10-14T07:09:49.111Z,15232
2016-10-14T07:10:49.135Z,13628
2016-10-14T07:12:04.105Z,13032
2016-10-14T07:13:04.095Z,12696
2016-10-14T07:13:49.193Z,11788
2016-10-14T07:14:49.223Z,12356
2016-10-14T07:17:49.272Z,10516
2016-10-14T07:18:49.292Z,10208
2016-10-14T07:19:49.324Z,9920
2016-10-14T07:20:49.339Z,10044
2016-10-14T07:21:49.360Z,10080
2016-10-14T07:22:49.683Z,9636
2016-10-14T07:24:04.328Z,9580
2016-10-14T07:25:04.358Z,9580
2016-10-14T07:25:49.444Z,9764
2016-10-14T07:26:49.467Z,10236
2016-10-14T07:28:04.402Z,10044
2016-10-14T07:28:49.510Z,9668
2016-10-14T07:29:49.522Z,9524
2016-10-14T07:30:49.541Z,9680
2016-10-14T07:31:49.562Z,8276
2016-10-14T07:32:49.588Z,8944
2016-10-14T07:33:49.609Z,8136
2016-10-14T07:34:49.878Z,8108
2016-10-14T07:36:04.573Z,7404
2016-10-14T07:36:49.659Z,7372
2016-10-14T07:37:49.688Z,6920
2016-10-14T07:38:49.706Z,6640
2016-10-14T07:40:49.754Z,6572
2016-10-14T07:41:49.771Z,6344
2016-10-14T07:42:49.798Z,6148
2016-10-14T07:43:49.806Z,6648
2016-10-14T07:45:50.155Z,8024
2016-10-14T07:46:49.875Z,7768
2016-10-14T07:47:49.902Z,9476
2016-10-14T07:48:49.913Z,9772
2016-10-14T07:49:49.939Z,9456
2016-10-14T07:50:49.947Z,9268
2016-10-14T07:52:04.900Z,9324
2016-10-14T07:52:49.989Z,9328
2016-10-14T07:53:50.256Z,9216
2016-10-14T07:54:50.032Z,9216
2016-10-14T07:55:50.054Z,9120
2016-10-14T07:56:50.076Z,9120
2016-10-14T07:58:05.015Z,9252
2016-10-14T07:59:05.033Z,9288
2016-10-14T08:00:05.260Z,9256
2016-10-14T08:00:50.155Z,9308
2016-10-14T08:02:50.204Z,9128
2016-10-14T08:03:50.222Z,9092
2016-10-14T08:04:50.236Z,9528
2016-10-14T08:05:50.261Z,9656
2016-10-14T08:06:50.287Z,10220
2016-10-14T08:07:50.300Z,10220
2016-10-14T08:08:50.320Z,10492
2016-10-14T08:09:50.336Z,10796
2016-10-14T08:10:50.363Z,10940
2016-10-14T08:11:50.689Z,11336
2016-10-14T08:12:50.472Z,11316
2016-10-14T08:13:50.426Z,11348
2016-10-14T08:14:50.447Z,11536
2016-10-14T08:16:05.790Z,11096
2016-10-14T08:17:50.517Z,11132
2016-10-14T08:18:50.537Z,11132
2016-10-14T08:20:50.569Z,11840
2016-10-14T08:21:50.594Z,11976
2016-10-14T08:23:05.540Z,12432
2016-10-14T08:23:50.631Z,12736
2016-10-14T08:24:50.654Z,11664
2016-10-14T08:25:50.683Z,11788
2016-10-14T08:26:50.696Z,11760
2016-10-14T08:27:51.714Z,11784
2016-10-14T08:28:50.755Z,11712
2016-10-14T08:29:50.766Z,11744
2016-10-14T08:30:50.788Z,11632
2016-10-14T08:32:05.732Z,12244
2016-10-14T08:32:50.824Z,12504
2016-10-14T08:33:50.856Z,12860
2016-10-14T08:34:50.873Z,13044
2016-10-14T08:35:50.890Z,12756
2016-10-14T08:36:50.912Z,12800
2016-10-14T08:38:50.954Z,13104
2016-10-14T08:39:50.978Z,12768
2016-10-14T08:40:50.993Z,12060
2016-10-14T08:42:05.941Z,12604
2016-10-14T08:42:51.038Z,12668
2016-10-14T08:43:51.063Z,12792
2016-10-14T08:44:51.099Z,12424
2016-10-14T08:45:51.112Z,12772
2016-10-14T08:46:51.331Z,12728
2016-10-14T08:48:06.068Z,12212
2016-10-14T08:48:51.178Z,12400
2016-10-14T08:49:51.186Z,12608
2016-10-14T08:50:51.223Z,12744
2016-10-14T08:51:51.241Z,12796
2016-10-14T08:52:51.309Z,12956
2016-10-14T08:53:51.283Z,12740
2016-10-14T08:54:51.560Z,11848
2016-10-14T08:56:06.251Z,12208
2016-10-14T08:56:51.344Z,12696
2016-10-14T08:58:51.385Z,12728
2016-10-14T09:00:06.335Z,11936
2016-10-14T09:00:51.438Z,12300
2016-10-14T09:01:51.459Z,12400
2016-10-14T09:03:06.399Z,12272
2016-10-14T09:03:51.510Z,11768
2016-10-14T09:05:06.697Z,11872
2016-10-14T09:05:51.541Z,12424
2016-10-14T09:06:51.578Z,13048
2016-10-14T09:07:51.592Z,12872
2016-10-14T09:08:51.616Z,13008
2016-10-14T09:09:51.634Z,12816
2016-10-14T09:10:51.654Z,13184
2016-10-14T09:11:51.682Z,13160
2016-10-14T09:12:51.700Z,12904
2016-10-14T09:13:51.721Z,13044
2016-10-14T09:14:51.745Z,12656
2016-10-14T09:16:06.688Z,12692
2016-10-14T09:17:06.710Z,12468
2016-10-14T09:17:51.814Z,12928
2016-10-14T09:18:51.830Z,13160
2016-10-14T09:19:51.856Z,13128
2016-10-14T09:20:51.881Z,13372
2016-10-14T09:21:51.898Z,13392
2016-10-14T09:22:51.933Z,13492
2016-10-14T09:23:51.945Z,13604
2016-10-14T09:24:51.969Z,13600
2016-10-14T09:26:52.012Z,13860
2016-10-14T09:27:52.035Z,14104
2016-10-14T09:28:52.061Z,13948
2016-10-14T09:29:52.080Z,14064
2016-10-14T09:30:52.103Z,14468
2016-10-14T09:32:52.146Z,14380
2016-10-14T09:33:52.171Z,14220
2016-10-14T09:35:07.117Z,14432
2016-10-14T09:35:52.217Z,13856
2016-10-14T09:36:52.240Z,13192
2016-10-14T09:37:52.259Z,12620
2016-10-14T09:38:52.596Z,12320
2016-10-14T09:39:52.303Z,12444
2016-10-14T09:40:52.331Z,13024
2016-10-14T09:42:07.535Z,13000
2016-10-14T09:42:52.723Z,13000
2016-10-14T09:43:52.407Z,13216
2016-10-14T09:44:52.420Z,13332
2016-10-14T09:46:07.571Z,13552
2016-10-14T09:47:07.389Z,13348
2016-10-14T09:47:52.497Z,13004
2016-10-14T09:48:52.766Z,13308
2016-10-14T09:49:52.528Z,13340
2016-10-14T09:51:07.484Z,14000
2016-10-14T09:51:52.578Z,14236
2016-10-14T09:52:52.602Z,14344
2016-10-14T09:53:52.633Z,14392
2016-10-14T09:54:52.655Z,13984
2016-10-14T09:55:52.682Z,13412
2016-10-14T09:56:52.698Z,12620
2016-10-14T09:57:52.965Z,12924
2016-10-14T09:58:52.751Z,12692
2016-10-14T09:59:52.771Z,12728
2016-10-14T10:00:52.794Z,12400
2016-10-14T10:01:52.820Z,11756
2016-10-14T10:03:53.159Z,11132
2016-10-14T10:04:52.884Z,11680
2016-10-14T10:05:52.902Z,11788
2016-10-14T10:07:07.850Z,11964
2016-10-14T10:07:52.951Z,11896
2016-10-14T10:08:53.173Z,11360
2016-10-14T10:09:52.994Z,11324
2016-10-14T10:10:53.025Z,11216
2016-10-14T10:11:53.043Z,10976
2016-10-14T10:12:53.074Z,10872
2016-10-14T10:13:53.085Z,10732
2016-10-14T10:14:53.367Z,9816
2016-10-14T10:15:53.133Z,9292
2016-10-14T10:17:08.081Z,8968
2016-10-14T10:17:53.188Z,8688
2016-10-14T10:18:53.204Z,8688
2016-10-14T10:20:08.152Z,8472
2016-10-14T10:20:53.258Z,8384
2016-10-14T10:21:53.267Z,8436
2016-10-14T10:23:08.221Z,8224
2016-10-14T10:23:53.321Z,8368
2016-10-14T10:24:53.357Z,8388
2016-10-14T10:25:53.363Z,8292
2016-10-14T10:27:53.414Z,7956
2016-10-14T10:28:53.428Z,7804
2016-10-14T10:29:54.459Z,7480
2016-10-14T10:31:08.406Z,7080
2016-10-14T10:31:53.504Z,6892
2016-10-14T10:32:53.887Z,6840
2016-10-14T10:33:53.549Z,6828
2016-10-14T10:34:53.567Z,6788
2016-10-14T10:35:53.594Z,6772
2016-10-14T10:36:53.612Z,6768
2016-10-14T10:38:08.563Z,6716
2016-10-14T10:39:53.681Z,6536
2016-10-14T10:40:53.706Z,6480
2016-10-14T10:41:53.724Z,6408
2016-10-14T10:42:53.752Z,6432
2016-10-14T10:43:53.773Z,6372
2016-10-14T10:44:53.798Z,6320
2016-10-14T10:45:53.816Z,6292
2016-10-14T10:46:53.831Z,6304
2016-10-14T10:47:53.871Z,6328
2016-10-14T10:49:08.807Z,6296
2016-10-14T10:50:08.831Z,6316
2016-10-14T10:50:53.925Z,6132
2016-10-14T10:51:53.950Z,6076
2016-10-14T10:52:53.993Z,6120
2016-10-14T10:53:54.005Z,6184
2016-10-14T10:55:54.049Z,6228
2016-10-14T10:56:54.321Z,6256
2016-10-14T10:57:54.092Z,6288
2016-10-14T10:58:54.104Z,6252
2016-10-14T11:00:09.062Z,6208
2016-10-14T11:00:54.160Z,6168
2016-10-14T11:02:09.104Z,6028
2016-10-14T11:02:54.203Z,6040
2016-10-14T11:03:54.220Z,6008
2016-10-14T11:04:54.245Z,5932
2016-10-14T11:06:09.190Z,5960
2016-10-14T11:07:09.210Z,5900
2016-10-14T11:07:54.304Z,5912
2016-10-14T11:08:54.338Z,5884
2016-10-14T11:10:09.275Z,5744
2016-10-14T11:10:54.375Z,5676
2016-10-14T11:11:54.652Z,5604
2016-10-14T11:12:54.422Z,5608
2016-10-14T11:13:54.447Z,5560
2016-10-14T11:14:54.464Z,5544
2016-10-14T11:15:54.491Z,5536
2016-10-14T11:17:54.536Z,5540
2016-10-14T11:18:54.568Z,5540
2016-10-14T11:19:54.584Z,5392
2016-10-14T11:20:54.604Z,5380
2016-10-14T11:22:09.551Z,5352
2016-10-14T11:23:09.874Z,5344
2016-10-14T11:23:54.688Z,5500
2016-10-14T11:25:09.614Z,5580
2016-10-14T11:26:09.680Z,5564
2016-10-14T11:26:54.752Z,5028
2016-10-14T11:27:54.760Z,5588
2016-10-14T11:28:54.790Z,5548
2016-10-14T11:29:54.808Z,5548
2016-10-14T11:30:54.833Z,5588
2016-10-14T11:31:54.859Z,5608
2016-10-14T11:33:55.154Z,5688
2016-10-14T11:34:55.227Z,5676
2016-10-14T11:35:54.946Z,5652
2016-10-14T11:36:54.968Z,5676
2016-10-14T11:37:54.994Z,5580
2016-10-14T11:38:55.011Z,5564
2016-10-14T11:39:55.090Z,5588
2016-10-14T11:40:55.062Z,5488
2016-10-14T11:42:10.003Z,5332
2016-10-14T11:42:55.099Z,5352
2016-10-14T11:43:55.118Z,5116
2016-10-14T11:44:55.145Z,5132
2016-10-14T11:45:55.170Z,5120
2016-10-14T11:46:55.191Z,5032
2016-10-14T11:47:55.218Z,5016
2016-10-14T11:48:55.244Z,5088
2016-10-14T11:49:55.257Z,5076
2016-10-14T11:50:55.279Z,5204
2016-10-14T11:51:55.312Z,5200
2016-10-14T11:52:55.330Z,5124
2016-10-14T11:54:55.376Z,5104
2016-10-14T11:55:55.642Z,4224
2016-10-14T11:56:55.423Z,5176
2016-10-14T11:58:10.366Z,5056
2016-10-14T11:58:55.470Z,5152
2016-10-14T11:59:55.486Z,5148
2016-10-14T12:00:55.508Z,5176
2016-10-14T12:01:55.541Z,5232
2016-10-14T12:02:55.550Z,5048
2016-10-14T12:03:55.575Z,4812
2016-10-14T12:04:55.854Z,5232
2016-10-14T12:05:55.625Z,5208
2016-10-14T12:06:55.639Z,5136
2016-10-14T12:07:55.675Z,4380
2016-10-14T12:09:10.614Z,5048
2016-10-14T12:09:55.708Z,5172
2016-10-14T12:10:55.993Z,5196
2016-10-14T12:11:55.761Z,5344
2016-10-14T12:13:10.702Z,5128
2016-10-14T12:14:55.827Z,5368
2016-10-14T12:15:55.855Z,5432
2016-10-14T12:16:55.882Z,5572
2016-10-14T12:17:55.953Z,5352
2016-10-14T12:18:55.912Z,5420
2016-10-14T12:19:55.947Z,5488
2016-10-14T12:21:10.890Z,5636
2016-10-14T12:21:55.990Z,5384
2016-10-14T12:22:56.010Z,5288
2016-10-14T12:23:56.041Z,5124
2016-10-14T12:24:56.052Z,5088
2016-10-14T12:25:56.853Z,4612
2016-10-14T12:29:56.171Z,5640
2016-10-14T12:30:56.193Z,5716
2016-10-14T12:33:56.254Z,5344
2016-10-14T12:34:56.287Z,4952
2016-10-14T12:36:11.234Z,5648
2016-10-14T12:36:56.321Z,5880
2016-10-14T12:37:56.359Z,5908
2016-10-14T12:38:56.371Z,6036
2016-10-14T12:40:11.320Z,5892
2016-10-14T12:40:56.413Z,5828
2016-10-14T12:41:56.450Z,5680
2016-10-14T12:43:11.384Z,4696
2016-10-14T12:43:56.486Z,5092
2016-10-14T12:45:11.487Z,4956
2016-10-14T12:45:56.535Z,4900
2016-10-14T12:46:56.567Z,5232
2016-10-14T12:47:56.577Z,5404
2016-10-14T12:48:56.608Z,6064
2016-10-14T12:49:56.631Z,5512
2016-10-14T12:50:56.649Z,5392
2016-10-14T12:51:56.675Z,4964
2016-10-14T12:52:56.704Z,5572
2016-10-14T12:53:56.719Z,5300
2016-10-14T12:55:11.669Z,5200
2016-10-14T12:56:11.992Z,5604
2016-10-14T12:56:56.792Z,5568
2016-10-14T12:58:11.737Z,5056
2016-10-14T12:59:11.756Z,4936
2016-10-14T13:00:11.794Z,5704
2016-10-14T13:01:11.811Z,5704
2016-10-14T13:01:57.203Z,5740
2016-10-14T13:02:56.926Z,5076
2016-10-14T13:03:56.952Z,5620
2016-10-14T13:05:56.992Z,4844
2016-10-14T13:06:57.025Z,5508
2016-10-14T13:08:57.316Z,5004
2016-10-14T13:09:57.079Z,5088
2016-10-14T13:10:57.112Z,4828
2016-10-14T13:11:57.134Z,5268
2016-10-14T13:12:57.158Z,4652
2016-10-14T13:13:57.178Z,4320
2016-10-14T13:14:57.203Z,4104
2016-10-14T13:16:12.151Z,4172
2016-10-14T13:17:12.221Z,4140
2016-10-14T13:18:57.297Z,4244
2016-10-14T13:19:57.317Z,4104
2016-10-14T13:20:57.346Z,4080
2016-10-14T13:21:57.361Z,4080
2016-10-14T13:22:57.387Z,4136
2016-10-14T13:24:12.337Z,4152
2016-10-14T13:24:57.434Z,4008
2016-10-14T13:26:57.482Z,3996
2016-10-14T13:27:57.752Z,4128
2016-10-14T13:28:57.539Z,4464
2016-10-14T13:29:57.552Z,4640
2016-10-14T13:30:57.571Z,4592
2016-10-14T13:32:12.764Z,4484
2016-10-14T13:33:57.637Z,4856
2016-10-14T13:34:57.968Z,4936
2016-10-14T13:35:57.683Z,4976
2016-10-14T13:36:57.714Z,5024
2016-10-14T13:37:57.736Z,4928
2016-10-14T13:38:57.761Z,4684
2016-10-14T13:39:58.031Z,4816
2016-10-14T13:40:57.802Z,4868
2016-10-14T13:41:57.834Z,4588
2016-10-14T13:42:58.147Z,4632
2016-10-14T13:43:57.885Z,4720
2016-10-14T13:45:57.922Z,4640
2016-10-14T13:46:57.945Z,4456
2016-10-14T13:48:12.890Z,4376
2016-10-14T13:49:58.014Z,4156
2016-10-14T13:50:58.033Z,4268
2016-10-14T13:51:58.063Z,4168
2016-10-14T13:53:58.104Z,3908
2016-10-14T13:54:58.128Z,3904
2016-10-14T13:55:58.156Z,4012
2016-10-14T13:56:58.179Z,4236
2016-10-14T13:57:58.208Z,3868
2016-10-14T13:58:58.522Z,3960
2016-10-14T13:59:58.264Z,3988
2016-10-14T14:01:13.189Z,4080
2016-10-14T14:01:58.291Z,4384
2016-10-14T14:02:58.309Z,3948
2016-10-14T14:03:58.343Z,3992
2016-10-14T14:04:58.360Z,3896
2016-10-14T14:05:58.384Z,3988
2016-10-14T14:06:58.405Z,3920
2016-10-14T14:07:58.431Z,4164
2016-10-14T14:08:58.446Z,4232
2016-10-14T14:09:58.734Z,4148
2016-10-14T14:11:58.525Z,3968
2016-10-14T14:13:13.471Z,3884
2016-10-14T14:13:58.564Z,3840
2016-10-14T14:14:58.587Z,3916
2016-10-14T14:16:58.638Z,3776
2016-10-14T14:17:58.663Z,3832
2016-10-14T14:18:58.688Z,3432
2016-10-14T14:20:13.625Z,3328
2016-10-14T14:20:58.743Z,3360
2016-10-14T14:21:58.757Z,3308
2016-10-14T14:22:58.772Z,3088
2016-10-14T14:23:58.800Z,2996
2016-10-14T14:24:59.073Z,3036
2016-10-14T14:25:58.841Z,2944
2016-10-14T14:26:58.877Z,3024
2016-10-14T14:27:58.908Z,3068
2016-10-14T14:28:58.914Z,2968
2016-10-14T14:29:58.937Z,3160
2016-10-14T14:31:13.884Z,3204
2016-10-14T14:31:58.985Z,3260
2016-10-14T14:32:59.006Z,2956
2016-10-14T14:33:59.034Z,3140
2016-10-14T14:34:59.052Z,3136
2016-10-14T14:36:14.002Z,3028
2016-10-14T14:36:59.103Z,2968
2016-10-14T14:37:59.123Z,2960
2016-10-14T14:38:59.142Z,2992
2016-10-14T14:39:59.171Z,3024
2016-10-14T14:40:59.197Z,3004
2016-10-14T14:41:59.211Z,3008
2016-10-14T14:43:59.256Z,2924
2016-10-14T14:44:59.537Z,2904
2016-10-14T14:45:59.302Z,2700
2016-10-14T14:46:59.333Z,2892
2016-10-14T14:48:14.276Z,2868
2016-10-14T14:48:59.382Z,2808
2016-10-14T14:49:59.398Z,2792
2016-10-14T14:51:14.338Z,2764